createdAt,value
2017-06-28T00:00:54.172Z,21.60
2017-06-28T00:03:20.587Z,21.60
2017-06-28T00:05:46.988Z,21.50
2017-06-28T00:08:14.244Z,21.50
2017-06-28T00:10:41.420Z,21.50
2017-06-28T00:13:07.837Z,21.50
2017-06-28T00:15:34.215Z,21.50
2017-06-28T00:18:00.704Z,21.50
2017-06-28T00:20:27.136Z,21.50
2017-06-28T00:22:53.571Z,21.50
2017-06-28T00:25:20.732Z,21.40
2017-06-28T00:27:47.116Z,21.40
2017-06-28T00:30:13.604Z,21.40
2017-06-28T00:32:39.996Z,21.40
2017-06-28T00:35:07.432Z,21.40
2017-06-28T00:37:33.864Z,21.40
2017-06-28T00:40:00.280Z,21.40
2017-06-28T00:42:26.671Z,21.40
2017-06-28T00:44:53.120Z,21.40
2017-06-28T00:47:19.543Z,21.50
2017-06-28T00:49:45.952Z,21.50
2017-06-28T00:52:12.416Z,21.40
2017-06-28T00:54:38.807Z,21.50
2017-06-28T00:57:05.200Z,21.40
2017-06-28T00:59:31.636Z,21.40
2017-06-28T01:01:58.014Z,21.40
2017-06-28T01:04:24.460Z,21.40
2017-06-28T01:06:50.919Z,21.30
2017-06-28T01:09:17.340Z,21.30
2017-06-28T01:11:43.792Z,21.30
2017-06-28T01:14:10.175Z,21.30
2017-06-28T01:16:37.271Z,21.20
2017-06-28T01:19:03.660Z,21.10
2017-06-28T01:21:30.104Z,21.10
2017-06-28T01:23:56.508Z,21.10
2017-06-28T01:26:22.902Z,21.10
2017-06-28T01:28:49.324Z,21.10
2017-06-28T01:31:15.817Z,21.00
2017-06-28T01:33:42.247Z,20.90
2017-06-28T01:36:08.888Z,20.90
2017-06-28T01:38:35.304Z,20.90
2017-06-28T01:41:01.707Z,20.80
2017-06-28T01:43:28.184Z,20.80
2017-06-28T01:45:54.607Z,20.80
2017-06-28T01:48:21.108Z,20.70
2017-06-28T01:50:47.536Z,20.70
2017-06-28T01:53:13.971Z,20.70
2017-06-28T01:55:41.111Z,20.60
2017-06-28T01:58:07.557Z,20.60
2017-06-28T02:00:33.998Z,20.60
2017-06-28T02:03:00.396Z,20.60
2017-06-28T02:05:26.832Z,20.50
2017-06-28T02:07:53.231Z,20.50
2017-06-28T02:10:19.829Z,20.50
2017-06-28T02:12:47.081Z,20.50
2017-06-28T02:15:13.585Z,20.50
2017-06-28T02:17:39.988Z,20.50
2017-06-28T02:20:06.496Z,20.50
2017-06-28T02:22:32.937Z,20.50
2017-06-28T02:24:59.604Z,20.50
2017-06-28T02:27:26.028Z,20.50
2017-06-28T02:29:52.421Z,20.50
2017-06-28T02:32:18.935Z,20.50
2017-06-28T02:34:45.351Z,20.50
2017-06-28T02:37:12.471Z,20.60
2017-06-28T02:39:38.963Z,20.60
2017-06-28T02:42:05.391Z,20.60
2017-06-28T02:44:31.764Z,20.60
2017-06-28T02:46:58.236Z,20.60
2017-06-28T02:49:24.644Z,20.70
2017-06-28T02:51:51.022Z,20.70
2017-06-28T02:54:17.424Z,20.80
2017-06-28T02:56:43.832Z,20.80
2017-06-28T02:59:10.292Z,20.80
2017-06-28T03:01:36.731Z,20.80
2017-06-28T03:04:03.115Z,20.80
2017-06-28T03:06:30.286Z,20.80
2017-06-28T03:08:56.762Z,20.80
2017-06-28T03:11:23.274Z,20.80
2017-06-28T03:13:49.718Z,20.80
2017-06-28T03:16:17.013Z,20.80
2017-06-28T03:18:43.443Z,20.70
2017-06-28T03:21:09.860Z,20.70
2017-06-28T03:23:36.261Z,20.70
2017-06-28T03:26:02.647Z,20.70
2017-06-28T03:28:29.112Z,20.70
2017-06-28T03:30:55.477Z,20.60
2017-06-28T03:33:21.909Z,20.60
2017-06-28T03:35:48.380Z,20.60
2017-06-28T03:38:14.891Z,20.60
2017-06-28T03:40:42.084Z,20.60
2017-06-28T03:43:08.581Z,20.50
2017-06-28T03:45:34.987Z,20.50
2017-06-28T03:48:01.488Z,20.50
2017-06-28T03:50:28.896Z,20.40
2017-06-28T03:52:55.307Z,20.30
2017-06-28T03:55:21.706Z,20.30
2017-06-28T03:57:48.112Z,20.30
2017-06-28T04:00:14.539Z,20.20
2017-06-28T04:02:41.116Z,20.20
2017-06-28T04:05:08.326Z,20.10
2017-06-28T04:07:34.727Z,20.10
2017-06-28T04:10:01.125Z,20.10
2017-06-28T04:12:28.061Z,20.00
2017-06-28T04:14:54.660Z,20.00
2017-06-28T04:17:21.072Z,20.10
2017-06-28T04:19:48.476Z,20.00
2017-06-28T04:22:15.019Z,20.00
2017-06-28T04:24:41.447Z,20.00
2017-06-28T04:27:08.675Z,19.90
2017-06-28T04:29:35.164Z,19.90
2017-06-28T04:32:01.584Z,19.90
2017-06-28T04:34:28.028Z,19.90
2017-06-28T04:36:54.468Z,19.90
2017-06-28T04:39:20.919Z,20.00
2017-06-28T04:41:47.517Z,20.00
2017-06-28T04:44:13.895Z,20.00
2017-06-28T04:46:41.416Z,20.00
2017-06-28T04:49:09.195Z,20.00
2017-06-28T04:51:35.620Z,20.00
2017-06-28T04:54:02.084Z,20.00
2017-06-28T04:56:28.536Z,20.00
2017-06-28T04:58:54.939Z,20.00
2017-06-28T05:01:22.121Z,19.90
2017-06-28T05:03:48.625Z,19.90
2017-06-28T05:06:15.723Z,20.00
2017-06-28T05:08:42.115Z,20.00
2017-06-28T05:11:08.524Z,19.90
2017-06-28T05:13:34.908Z,19.90
2017-06-28T05:16:01.318Z,20.00
2017-06-28T05:18:27.794Z,20.00
2017-06-28T05:20:54.203Z,20.00
2017-06-28T05:23:20.641Z,20.10
2017-06-28T05:25:47.016Z,20.10
2017-06-28T05:28:13.395Z,20.10
2017-06-28T05:30:39.918Z,20.20
2017-06-28T05:33:07.077Z,20.20
2017-06-28T05:35:33.444Z,20.10
2017-06-28T05:38:00.612Z,20.20
2017-06-28T05:40:27.123Z,20.20
2017-06-28T05:42:54.332Z,20.40
2017-06-28T05:45:21.256Z,20.30
2017-06-28T05:47:47.680Z,20.40
2017-06-28T05:50:14.071Z,20.50
2017-06-28T05:52:40.471Z,20.50
2017-06-28T05:55:06.896Z,20.60
2017-06-28T05:57:33.269Z,20.60
2017-06-28T05:59:59.664Z,20.70
2017-06-28T06:02:26.068Z,20.70
2017-06-28T06:04:52.468Z,20.80
2017-06-28T06:07:18.872Z,20.90
2017-06-28T06:09:46.308Z,20.90
2017-06-28T06:12:12.683Z,21.00
2017-06-28T06:14:39.189Z,21.00
2017-06-28T06:17:05.600Z,21.10
2017-06-28T06:19:32.090Z,21.00
2017-06-28T06:21:58.535Z,21.00
2017-06-28T06:24:24.965Z,21.00
2017-06-28T06:26:51.373Z,21.00
2017-06-28T06:29:21.745Z,21.00
2017-06-28T06:31:52.539Z,21.00
2017-06-28T06:34:19.000Z,21.00
2017-06-28T06:36:46.155Z,21.10
2017-06-28T06:39:12.672Z,21.00
2017-06-28T06:41:39.812Z,21.10
2017-06-28T06:44:06.999Z,21.10
2017-06-28T06:46:33.382Z,21.10
2017-06-28T06:48:59.787Z,21.10
2017-06-28T06:51:26.900Z,21.10
2017-06-28T06:53:53.296Z,21.10
2017-06-28T06:56:19.694Z,21.10
2017-06-28T06:58:46.053Z,20.90
2017-06-28T07:01:12.451Z,20.90
2017-06-28T07:03:38.896Z,20.90
2017-06-28T07:06:09.380Z,20.90
2017-06-28T07:08:35.846Z,20.90
2017-06-28T07:11:02.315Z,20.90
2017-06-28T07:13:28.884Z,20.80
2017-06-28T07:15:55.507Z,20.80
2017-06-28T07:18:21.956Z,20.80
2017-06-28T07:20:48.373Z,20.80
2017-06-28T07:23:14.856Z,20.70
2017-06-28T07:25:41.257Z,20.80
2017-06-28T07:28:08.404Z,20.70
2017-06-28T07:30:35.700Z,20.70
2017-06-28T07:33:02.144Z,20.70
2017-06-28T07:35:28.551Z,20.70
2017-06-28T07:37:54.982Z,20.60
2017-06-28T07:40:21.417Z,20.70
2017-06-28T07:42:48.500Z,20.60
2017-06-28T07:45:14.883Z,20.60
2017-06-28T07:47:41.271Z,20.60
2017-06-28T07:50:08.451Z,20.50
2017-06-28T07:52:34.911Z,20.50
2017-06-28T07:55:01.584Z,20.50
2017-06-28T07:57:28.107Z,20.50
2017-06-28T07:59:54.500Z,20.50
2017-06-28T08:02:20.927Z,20.50
2017-06-28T08:04:47.349Z,20.50
2017-06-28T08:07:13.887Z,20.30
2017-06-28T08:09:40.313Z,20.40
2017-06-28T08:12:06.735Z,20.40
2017-06-28T08:14:33.888Z,20.50
2017-06-28T08:17:00.427Z,20.50
2017-06-28T08:19:26.868Z,20.50
2017-06-28T08:21:53.244Z,20.60
2017-06-28T08:24:19.703Z,20.60
2017-06-28T08:26:46.168Z,20.80
2017-06-28T08:29:12.624Z,20.90
2017-06-28T08:31:39.106Z,21.00
2017-06-28T08:34:06.341Z,21.20
2017-06-28T08:36:33.604Z,21.20
2017-06-28T08:39:00.036Z,21.20
2017-06-28T08:41:26.431Z,21.30
2017-06-28T08:43:52.875Z,21.40
2017-06-28T08:46:19.440Z,21.50
2017-06-28T08:48:45.896Z,21.50
2017-06-28T08:51:12.477Z,21.60
2017-06-28T08:53:39.022Z,21.60
2017-06-28T08:56:06.292Z,21.80
2017-06-28T08:58:32.715Z,21.80
2017-06-28T09:00:59.092Z,21.80
2017-06-28T09:03:25.491Z,21.80
2017-06-28T09:05:51.891Z,21.90
2017-06-28T09:08:18.253Z,22.00
2017-06-28T09:10:44.624Z,22.10
2017-06-28T09:13:11.035Z,22.30
2017-06-28T09:15:38.240Z,22.60
2017-06-28T09:18:04.666Z,22.60
2017-06-28T09:20:31.066Z,22.50
2017-06-28T09:22:57.543Z,22.60
2017-06-28T09:25:24.644Z,22.80
2017-06-28T09:27:51.115Z,22.80
2017-06-28T09:30:17.614Z,22.90
2017-06-28T09:32:44.270Z,22.90
2017-06-28T09:35:10.727Z,23.00
2017-06-28T09:37:37.468Z,23.00
2017-06-28T09:40:07.491Z,23.10
2017-06-28T09:42:33.903Z,23.20
2017-06-28T09:45:00.439Z,23.30
2017-06-28T09:47:26.944Z,23.40
2017-06-28T09:49:53.584Z,23.50
2017-06-28T09:52:20.037Z,23.50
2017-06-28T09:55:01.556Z,23.50
2017-06-28T09:57:27.980Z,23.30
2017-06-28T09:59:54.367Z,23.10
2017-06-28T10:02:20.768Z,22.90
2017-06-28T10:04:47.431Z,22.80
2017-06-28T10:07:14.992Z,22.90
2017-06-28T10:09:41.468Z,22.80
2017-06-28T10:12:07.893Z,22.90
2017-06-28T10:14:34.343Z,23.10
2017-06-28T10:17:00.819Z,23.30
2017-06-28T10:19:27.292Z,23.40
2017-06-28T10:21:54.756Z,23.40
2017-06-28T10:24:21.908Z,23.50
2017-06-28T10:26:48.345Z,23.50
2017-06-28T10:29:14.748Z,23.70
2017-06-28T10:31:41.255Z,23.90
2017-06-28T10:34:07.790Z,24.00
2017-06-28T10:36:34.172Z,24.10
2017-06-28T10:39:00.634Z,24.10
2017-06-28T10:41:27.035Z,23.80
2017-06-28T10:43:53.416Z,23.90
2017-06-28T10:46:19.811Z,23.90
2017-06-28T10:48:46.303Z,24.00
2017-06-28T10:51:12.712Z,24.00
2017-06-28T10:53:39.099Z,23.80
2017-06-28T10:56:05.532Z,23.60
2017-06-28T10:58:31.943Z,23.40
2017-06-28T11:00:59.128Z,22.80
2017-06-28T11:03:25.705Z,22.80
2017-06-28T11:05:52.155Z,22.60
2017-06-28T11:08:18.592Z,22.50
2017-06-28T11:10:45.124Z,22.30
2017-06-28T11:13:11.502Z,22.20
2017-06-28T11:15:38.028Z,22.20
2017-06-28T11:18:04.517Z,22.00
2017-06-28T11:20:31.020Z,21.90
2017-06-28T11:22:57.475Z,21.70
2017-06-28T11:25:23.890Z,21.60
2017-06-28T11:27:51.344Z,21.50
2017-06-28T11:30:18.100Z,21.40
2017-06-28T11:32:45.384Z,21.60
2017-06-28T11:35:11.779Z,21.60
2017-06-28T11:37:38.277Z,21.90
2017-06-28T11:40:04.744Z,22.40
2017-06-28T11:42:31.189Z,22.90
2017-06-28T11:44:58.377Z,23.80
2017-06-28T11:47:24.905Z,23.80
2017-06-28T11:49:51.532Z,24.10
2017-06-28T11:52:18.107Z,24.20
2017-06-28T11:54:44.611Z,24.30
2017-06-28T11:57:11.114Z,24.60
2017-06-28T11:59:37.519Z,24.80
2017-06-28T12:02:04.081Z,24.60
2017-06-28T12:04:30.492Z,24.40
2017-06-28T12:06:57.016Z,24.20
2017-06-28T12:09:23.416Z,23.90
2017-06-28T12:11:49.804Z,23.70
2017-06-28T12:14:16.981Z,23.50
2017-06-28T12:16:43.378Z,23.40
2017-06-28T12:19:10.468Z,23.50
2017-06-28T12:21:36.874Z,23.50
2017-06-28T12:24:03.300Z,23.90
2017-06-28T12:26:29.693Z,24.30
2017-06-28T12:28:56.205Z,24.90
2017-06-28T12:31:23.387Z,27.30
2017-06-28T12:33:49.809Z,27.20
2017-06-28T12:36:16.999Z,29.40
2017-06-28T12:38:43.480Z,29.40
2017-06-28T12:41:09.856Z,29.60
2017-06-28T12:43:36.244Z,29.20
2017-06-28T12:46:02.685Z,28.70
2017-06-28T12:48:29.075Z,27.90
2017-06-28T12:50:55.548Z,26.70
2017-06-28T12:53:21.981Z,24.10
2017-06-28T12:55:48.351Z,22.80
2017-06-28T12:58:14.783Z,22.30
2017-06-28T13:00:41.321Z,22.70
2017-06-28T13:03:07.728Z,24.80
2017-06-28T13:05:34.078Z,26.70
2017-06-28T13:08:00.475Z,28.10
2017-06-28T13:10:27.640Z,27.40
2017-06-28T13:12:54.076Z,27.40
2017-06-28T13:15:20.627Z,27.40
2017-06-28T13:17:47.024Z,27.30
2017-06-28T13:20:13.460Z,27.30
2017-06-28T13:22:40.611Z,30.50
2017-06-28T13:25:07.790Z,32.60
2017-06-28T13:27:34.232Z,32.50
2017-06-28T13:30:00.690Z,34.30
2017-06-28T13:32:27.076Z,35.80
2017-06-28T13:34:53.492Z,37.60
2017-06-28T13:37:19.899Z,38.80
2017-06-28T13:39:46.396Z,40.00
2017-06-28T13:42:12.977Z,39.90
2017-06-28T13:44:39.375Z,40.20
2017-06-28T13:47:05.879Z,40.40
2017-06-28T13:49:32.278Z,40.40
2017-06-28T13:51:58.715Z,38.40
2017-06-28T13:54:25.183Z,36.30
2017-06-28T13:56:52.380Z,35.00
2017-06-28T13:59:18.795Z,34.90
2017-06-28T14:01:45.322Z,34.50
2017-06-28T14:04:11.656Z,35.50
2017-06-28T14:06:38.009Z,37.10
2017-06-28T14:09:04.564Z,38.80
2017-06-28T14:11:31.012Z,39.60
2017-06-28T14:13:57.379Z,40.60
2017-06-28T14:16:23.771Z,41.60
2017-06-28T14:18:50.901Z,42.60
2017-06-28T14:21:17.373Z,42.50
2017-06-28T14:23:43.785Z,41.30
2017-06-28T14:26:10.235Z,38.80
2017-06-28T14:28:36.664Z,37.20
2017-06-28T14:31:03.080Z,36.20
2017-06-28T14:33:29.477Z,36.50
2017-06-28T14:35:55.984Z,37.70
2017-06-28T14:38:23.144Z,38.10
2017-06-28T14:40:49.560Z,38.10
2017-06-28T14:43:15.961Z,38.00
2017-06-28T14:45:42.383Z,37.10
2017-06-28T14:48:09.348Z,37.30
2017-06-28T14:50:35.763Z,38.00
2017-06-28T14:53:02.220Z,39.30
2017-06-28T14:55:28.611Z,38.30
2017-06-28T14:57:55.020Z,38.40
2017-06-28T15:00:21.456Z,37.30
2017-06-28T15:02:47.868Z,35.50
2017-06-28T15:05:14.292Z,34.00
2017-06-28T15:07:40.784Z,32.70
2017-06-28T15:10:07.171Z,31.90
2017-06-28T15:12:33.651Z,31.20
2017-06-28T15:15:00.087Z,30.50
2017-06-28T15:17:26.469Z,30.00
2017-06-28T15:19:52.936Z,29.60
2017-06-28T15:22:19.343Z,29.50
2017-06-28T15:24:45.752Z,29.70
2017-06-28T15:27:12.223Z,29.60
2017-06-28T15:29:38.612Z,29.70
2017-06-28T15:32:05.088Z,29.90
2017-06-28T15:34:31.484Z,30.00
2017-06-28T15:36:58.595Z,30.00
2017-06-28T15:39:25.009Z,30.00
2017-06-28T15:41:52.229Z,30.00
2017-06-28T15:44:18.618Z,30.00
2017-06-28T15:46:45.047Z,30.00
2017-06-28T15:49:11.613Z,29.80
2017-06-28T15:51:38.115Z,29.70
2017-06-28T15:54:16.823Z,29.70
2017-06-28T15:56:45.947Z,29.70
2017-06-28T15:59:12.352Z,29.60
2017-06-28T16:01:39.508Z,29.40
2017-06-28T16:04:05.951Z,29.40
2017-06-28T16:06:32.560Z,29.30
2017-06-28T16:08:59.832Z,29.20
2017-06-28T16:11:26.346Z,29.10
2017-06-28T16:13:52.770Z,29.10
2017-06-28T16:16:21.100Z,28.80
2017-06-28T16:18:47.586Z,28.80
2017-06-28T16:21:13.984Z,28.70
2017-06-28T16:23:41.260Z,28.70
2017-06-28T16:26:07.733Z,28.60
2017-06-28T16:28:34.897Z,28.70
2017-06-28T16:31:01.298Z,28.70
2017-06-28T16:33:28.916Z,28.70
2017-06-28T16:35:55.308Z,28.60
2017-06-28T16:38:21.738Z,28.40
2017-06-28T16:40:48.194Z,28.40
2017-06-28T16:43:14.627Z,28.20
2017-06-28T16:45:41.058Z,27.90
2017-06-28T16:48:07.470Z,27.60
2017-06-28T16:50:33.898Z,27.20
2017-06-28T16:53:00.367Z,26.90
2017-06-28T16:55:26.883Z,26.50
2017-06-28T16:57:54.128Z,26.10
2017-06-28T17:00:20.602Z,25.90
2017-06-28T17:02:47.011Z,25.90
2017-06-28T17:05:13.418Z,25.70
2017-06-28T17:07:39.903Z,25.60
2017-06-28T17:10:10.115Z,25.50
2017-06-28T17:12:36.500Z,25.40
2017-06-28T17:15:02.984Z,25.40
2017-06-28T17:17:29.424Z,25.30
2017-06-28T17:19:56.589Z,25.10
2017-06-28T17:22:23.016Z,25.10
2017-06-28T17:24:49.488Z,25.00
2017-06-28T17:27:15.909Z,24.90
2017-06-28T17:29:43.140Z,24.80
2017-06-28T17:32:10.690Z,24.70
2017-06-28T17:34:37.098Z,24.70
2017-06-28T17:37:03.764Z,24.70
2017-06-28T17:39:30.919Z,24.70
2017-06-28T17:41:57.268Z,24.70
2017-06-28T17:44:24.482Z,24.60
2017-06-28T17:46:50.928Z,24.60
2017-06-28T17:49:17.316Z,24.60
2017-06-28T17:51:44.700Z,24.60
2017-06-28T17:54:11.083Z,24.30
2017-06-28T17:56:37.491Z,24.30
2017-06-28T17:59:03.930Z,24.30
2017-06-28T18:01:30.375Z,24.10
2017-06-28T18:03:56.848Z,24.10
2017-06-28T18:06:23.324Z,24.10
2017-06-28T18:08:49.720Z,24.00
2017-06-28T18:11:16.211Z,23.90
2017-06-28T18:13:42.714Z,23.90
2017-06-28T18:16:09.412Z,23.80
2017-06-28T18:18:35.902Z,23.70
2017-06-28T18:21:03.064Z,23.60
2017-06-28T18:23:30.437Z,23.50
2017-06-28T18:25:57.169Z,23.50
2017-06-28T18:28:23.987Z,23.50
2017-06-28T18:30:50.526Z,23.40
2017-06-28T18:33:17.460Z,23.40
2017-06-28T18:35:44.358Z,23.30
2017-06-28T18:38:11.150Z,23.30
2017-06-28T18:40:38.510Z,23.20
2017-06-28T18:43:05.606Z,23.10
2017-06-28T18:45:33.001Z,23.10
2017-06-28T18:48:00.168Z,23.00
2017-06-28T18:50:27.182Z,23.00
2017-06-28T18:52:54.071Z,22.90
2017-06-28T18:55:21.239Z,22.90
2017-06-28T18:57:48.083Z,22.90
2017-06-28T19:00:15.302Z,22.80
2017-06-28T19:02:42.649Z,22.80
2017-06-28T19:05:10.605Z,22.70
2017-06-28T19:07:39.494Z,22.60
2017-06-28T19:10:08.143Z,22.40
2017-06-28T19:12:36.253Z,22.40
2017-06-28T19:15:04.179Z,22.40
2017-06-28T19:17:32.826Z,22.30
2017-06-28T19:20:01.021Z,22.20
2017-06-28T19:22:28.934Z,22.20
2017-06-28T19:24:56.830Z,22.10
2017-06-28T19:27:25.688Z,21.90
2017-06-28T19:29:53.536Z,21.90
2017-06-28T19:32:21.443Z,21.80
2017-06-28T19:34:49.594Z,21.70
2017-06-28T19:37:17.574Z,21.60
2017-06-28T19:39:45.460Z,21.60
2017-06-28T19:42:14.186Z,21.40
2017-06-28T19:44:42.143Z,21.30
2017-06-28T19:47:09.909Z,21.40
2017-06-28T19:49:37.894Z,21.20
2017-06-28T19:52:05.667Z,21.20
2017-06-28T19:54:33.410Z,21.10
2017-06-28T19:57:01.426Z,21.00
2017-06-28T19:59:29.238Z,21.00
2017-06-28T20:01:57.017Z,20.90
2017-06-28T20:04:25.098Z,20.80
2017-06-28T20:06:52.823Z,20.70
2017-06-28T20:09:20.585Z,20.70
2017-06-28T20:11:48.586Z,20.60
2017-06-28T20:14:16.380Z,20.50
2017-06-28T20:16:44.908Z,20.40
2017-06-28T20:19:13.172Z,20.40
2017-06-28T20:21:41.054Z,20.30
2017-06-28T20:24:08.963Z,20.20
2017-06-28T20:26:37.074Z,20.20
2017-06-28T20:29:05.827Z,20.00
2017-06-28T20:31:34.552Z,20.00
2017-06-28T20:34:02.714Z,19.90
2017-06-28T20:36:30.541Z,19.90
2017-06-28T20:38:58.431Z,19.80
2017-06-28T20:41:26.471Z,19.80
2017-06-28T20:43:54.386Z,19.70
2017-06-28T20:46:22.238Z,19.60
2017-06-28T20:48:50.840Z,19.60
2017-06-28T20:51:18.339Z,19.50
2017-06-28T20:53:46.080Z,19.50
2017-06-28T20:56:13.770Z,19.40
2017-06-28T20:58:40.981Z,19.40
2017-06-28T21:01:08.774Z,19.30
2017-06-28T21:03:35.352Z,19.30
2017-06-28T21:06:01.773Z,19.30
2017-06-28T21:08:28.464Z,19.20
2017-06-28T21:10:55.224Z,19.10
2017-06-28T21:13:22.750Z,19.10
2017-06-28T21:15:49.319Z,19.10
2017-06-28T21:18:15.835Z,19.00
2017-06-28T21:20:44.227Z,19.00
2017-06-28T21:23:10.648Z,19.00
2017-06-28T21:25:37.179Z,18.90
2017-06-28T21:28:05.668Z,18.90
2017-06-28T21:30:32.088Z,18.80
2017-06-28T21:32:59.248Z,18.80
2017-06-28T21:35:26.397Z,18.70
2017-06-28T21:37:53.035Z,18.70
2017-06-28T21:40:19.533Z,18.70
2017-06-28T21:42:46.711Z,18.50
2017-06-28T21:45:13.223Z,18.50
2017-06-28T21:47:39.700Z,18.50
2017-06-28T21:50:06.178Z,18.50
2017-06-28T21:52:32.551Z,18.50
2017-06-28T21:54:58.975Z,18.50
2017-06-28T21:57:25.364Z,18.40
2017-06-28T21:59:51.817Z,18.40
2017-06-28T22:02:18.304Z,18.40
2017-06-28T22:04:45.169Z,18.40
2017-06-28T22:07:11.640Z,18.40
2017-06-28T22:09:38.058Z,18.40
2017-06-28T22:12:04.528Z,18.30
2017-06-28T22:14:30.992Z,18.30
2017-06-28T22:16:58.676Z,18.30
2017-06-28T22:19:37.407Z,18.20
2017-06-28T22:22:03.881Z,18.20
2017-06-28T22:24:30.292Z,18.20
2017-06-28T22:26:56.812Z,18.10
2017-06-28T22:29:23.256Z,18.10
2017-06-28T22:31:49.769Z,18.10
2017-06-28T22:34:16.259Z,18.10
2017-06-28T22:36:42.764Z,18.00
2017-06-28T22:39:09.164Z,18.00
2017-06-28T22:41:37.183Z,18.00
2017-06-28T22:44:04.703Z,18.00
2017-06-28T22:46:31.308Z,18.00
2017-06-28T22:48:58.341Z,18.00
2017-06-28T22:51:24.902Z,18.00
2017-06-28T22:53:51.491Z,18.00
2017-06-28T22:56:18.472Z,17.90
2017-06-28T22:58:45.411Z,17.90
2017-06-28T23:01:12.576Z,17.80
2017-06-28T23:03:39.068Z,17.80
2017-06-28T23:06:05.583Z,17.80
2017-06-28T23:08:32.071Z,17.80
2017-06-28T23:10:58.462Z,17.70
2017-06-28T23:13:25.669Z,17.70
2017-06-28T23:15:52.157Z,17.60
2017-06-28T23:18:18.560Z,17.60
2017-06-28T23:20:45.004Z,17.60
2017-06-28T23:23:11.440Z,17.60
2017-06-28T23:25:37.882Z,17.60
2017-06-28T23:28:05.148Z,17.60
2017-06-28T23:30:32.364Z,17.60
2017-06-28T23:32:58.912Z,17.60
2017-06-28T23:35:25.508Z,17.60
2017-06-28T23:37:51.924Z,17.50
2017-06-28T23:40:18.344Z,17.50
2017-06-28T23:42:44.767Z,17.50
2017-06-28T23:45:11.136Z,17.50
2017-06-28T23:47:37.581Z,17.50
2017-06-28T23:50:04.023Z,17.60
2017-06-28T23:52:30.427Z,17.60
2017-06-28T23:54:56.856Z,17.50
2017-06-28T23:57:23.273Z,17.60
2017-06-28T23:59:49.654Z,17.60
